Main page
METAR-TAF:

METAR-TAF

Airports :

Dubai, United Arab Emirates

Dubai International Airport

latitude: 25-15-10N, longitude: 055-21-52E, elevation: 8 m

Current weather observation

The report was made 55 minutes ago, at 21:00 UTC
Wind 5 kt from the Southwest
Temperature 23°C
Humidity 65%
Pressure 1013 hPa
Visibility 10 km or more
no clouds below 1500 m and no cumulonimbus

METAR: OMDB 192100Z 22005KT CAVOK 23/16 Q1013 NOSIG

Time: 01:55 (21:55 UTC)

Forecast

The report was made 5 hours and 4 minutes ago, at 16:51 UTC
Forecast valid from 19 at 18 UTC to 21 at 00 UTC
Wind 10 kt from the West/Northwest
Visibility: 8000 m
Probability 30%
from 19 at 18 UTC to 20 at 05 UTC
Wind 5 kt from the Southwest
Probability 30%
from 20 at 02 UTC to 20 at 04 UTC
Visibility: 4000 m
haze
Becoming
from 20 at 16 UTC to 20 at 18 UTC
Wind 5 kt from the South/Southwest

TAF: OMDB 191651Z 1918/2100 29010KT 8000 NSC PROB30 1918/2005 23005KT PROB30 2002/2004 4000 HZ BECMG 2016/2018 21005KT

Weather observations and forecasts of more than 4000 airports (METAR and TAF reports).

The available stations are represented by yellow and red dots on the map.

Hover mouse over dot to see the name of the station.

Then click to see weather observations and forecasts.

To change the map : click on the green buttons with a black cross to zoom in, on the green button with a dash to zoom out, or on the green arrows for adjacent maps.


METAR-TAF: